Time;durP1;ratioP1;P1;durP2;ratioP2;P2;SDS_P1;SDS_P2;PMS_P1;PMS_P2;Temp;Humidity;BMP_temperature;BMP_pressure;BME280_temperature;BME280_humidity;BME280_pressure;Samples;Min_cycle;Max_cycle;Signal;HPM_P1;HPM_P2
2022/04/03 00:01:29;;;;;;;5.42;4.33;;;;;;;1.41;100.00;98418.24;1747849;82;21048;-69
2022/04/03 00:03:56;;;;;;;6.10;4.72;;;;;;;1.41;100.00;98411.30;1748127;81;21049;-69
2022/04/03 00:06:22;;;;;;;4.92;4.40;;;;;;;1.40;100.00;98412.21;1748105;82;22182;-69
2022/04/03 00:08:49;;;;;;;5.85;4.50;;;;;;;1.40;100.00;98414.80;1747956;82;21060;-69
2022/04/03 00:11:17;;;;;;;5.53;4.28;;;;;;;1.40;100.00;98414.80;1748119;81;21534;-69
2022/04/03 00:13:43;;;;;;;5.25;4.10;;;;;;;1.39;100.00;98416.13;1748009;82;21719;-70
2022/04/03 00:16:12;;;;;;;5.92;4.22;;;;;;;1.37;100.00;98416.16;1748092;82;21028;-69
2022/04/03 00:18:38;;;;;;;5.92;4.37;;;;;;;1.36;100.00;98415.77;1748222;82;21025;-70
2022/04/03 00:21:05;;;;;;;5.42;4.17;;;;;;;1.39;100.00;98425.20;1748035;82;21069;-69
2022/04/03 00:23:33;;;;;;;4.50;3.83;;;;;;;1.40;100.00;98426.47;1747639;82;21522;-69
2022/04/03 00:25:59;;;;;;;5.60;4.45;;;;;;;1.40;100.00;98427.77;1747747;80;21639;-68
2022/04/03 00:28:30;;;;;;;6.30;4.83;;;;;;;1.40;100.00;98425.18;1747873;82;21588;-69
2022/04/03 00:30:55;;;;;;;6.72;5.58;;;;;;;1.39;100.00;98418.27;1747625;82;21101;-69
2022/04/03 00:33:22;;;;;;;5.65;4.67;;;;;;;1.39;100.00;98415.67;1748164;82;21021;-69
2022/04/03 00:35:50;;;;;;;5.97;4.60;;;;;;;1.38;100.00;98417.88;1748067;82;21601;-68
2022/04/03 00:38:18;;;;;;;6.08;4.12;;;;;;;1.37;100.00;98421.35;1748181;82;21108;-69
2022/04/03 00:40:46;;;;;;;5.12;4.37;;;;;;;1.37;100.00;98429.58;1748411;82;21084;-68
2022/04/03 00:43:13;;;;;;;5.75;4.70;;;;;;;1.36;100.00;98423.55;1747999;82;21076;-69
2022/04/03 00:45:46;;;;;;;7.33;4.97;;;;;;;1.33;100.00;98422.31;1748042;82;20998;-69
2022/04/03 00:48:14;;;;;;;5.97;4.60;;;;;;;1.32;100.00;98423.67;1748236;82;21600;-69
2022/04/03 00:50:41;;;;;;;5.60;4.65;;;;;;;1.31;100.00;98428.02;1739507;82;21734;-69
2022/04/03 00:53:08;;;;;;;6.30;4.80;;;;;;;1.31;100.00;98425.42;1733274;82;21566;-70
2022/04/03 00:55:34;;;;;;;5.83;4.55;;;;;;;1.29;100.00;98431.09;1733360;82;21053;-69
2022/04/03 00:58:02;;;;;;;5.78;4.50;;;;;;;1.26;100.00;98432.45;1733439;82;21561;-68
2022/04/03 01:00:29;;;;;;;6.85;4.47;;;;;;;1.25;100.00;98429.47;1708526;82;21222;-69
2022/04/03 01:02:56;;;;;;;5.67;4.30;;;;;;;1.23;100.00;98428.66;1733283;82;21074;-69
2022/04/03 01:07:03;;;;;;;6.73;4.90;;;;;;;1.18;100.00;98423.59;1796511;79;22402;-69
2022/04/03 01:09:31;;;;;;;6.28;4.60;;;;;;;1.13;100.00;98424.16;1756729;81;21053;-70
2022/04/03 01:11:58;;;;;;;5.78;4.65;;;;;;;1.14;100.00;98423.27;1756707;81;21494;-69
2022/04/03 01:14:38;;;;;;;4.85;4.15;;;;;;;1.14;100.00;98429.74;1756499;81;21009;-69
2022/04/03 01:17:07;;;;;;;;;;;;;;;1.15;100.00;98438.36;1725814;83;21048;-69
2022/04/03 01:19:34;;;;;;;6.65;4.53;;;;;;;1.17;100.00;98440.48;1709481;84;20188;-69
2022/04/03 01:22:00;;;;;;;6.05;4.70;;;;;;;1.15;100.00;98444.84;1709304;84;21090;-69
2022/04/03 01:24:27;;;;;;;6.78;5.33;;;;;;;1.18;100.00;98442.20;1705106;84;21271;-69
2022/04/03 01:26:54;;;;;;;6.90;5.40;;;;;;;1.19;100.00;98445.18;1696656;84;21041;-70
2022/04/03 01:29:21;;;;;;;6.67;4.97;;;;;;;1.19;100.00;98438.70;1714990;83;21064;-69
2022/04/03 01:31:48;;;;;;;6.30;4.92;;;;;;;1.20;100.00;98445.61;1707243;84;21533;-69
2022/04/03 01:34:16;;;;;;;7.05;5.65;;;;;;;1.19;100.00;98452.51;1707582;84;21610;-71
2022/04/03 01:36:44;;;;;;;7.35;5.47;;;;;;;1.16;100.00;98453.05;1707305;84;21226;-71
2022/04/03 01:39:10;;;;;;;7.30;5.65;;;;;;;1.17;100.00;98464.66;1707195;84;21104;-69
2022/04/03 01:41:39;;;;;;;8.23;6.00;;;;;;;1.17;100.00;98465.11;1707457;84;21108;-70
2022/04/03 01:44:06;;;;;;;7.62;6.05;;;;;;;1.16;100.00;98462.97;1707544;84;21632;-70
2022/04/03 01:46:34;;;;;;;7.53;5.85;;;;;;;1.15;100.00;98463.88;1707606;84;21112;-69
2022/04/03 01:49:01;;;;;;;6.28;5.35;;;;;;;1.17;100.00;98474.19;1708005;84;22264;-69
2022/04/03 01:51:27;;;;;;;9.10;6.78;;;;;;;1.18;100.00;98470.72;1707503;84;21639;-70
2022/04/03 01:53:54;;;;;;;7.92;6.50;;;;;;;1.20;100.00;98472.38;1707488;84;21556;-69
2022/04/03 01:56:20;;;;;;;9.08;6.33;;;;;;;1.21;100.00;98472.77;1707483;84;21533;-69
2022/04/03 01:58:48;;;;;;;7.55;5.70;;;;;;;1.20;100.00;98471.53;1707536;84;21049;-69
2022/04/03 02:01:15;;;;;;;7.60;5.65;;;;;;;1.22;100.00;98472.31;1707342;84;21227;-68
2022/04/03 02:03:42;;;;;;;6.55;5.17;;;;;;;1.26;100.00;98473.95;1707522;84;21077;-70
2022/04/03 02:06:09;;;;;;;8.30;5.67;;;;;;;1.26;100.00;98483.02;1700875;83;21100;-69
2022/04/03 02:08:37;;;;;;;9.63;6.90;;;;;;;1.24;100.00;98479.20;1694599;84;21601;-68
2022/04/03 02:11:05;;;;;;;6.50;5.58;;;;;;;1.24;100.00;98477.02;1694843;83;21065;-70
2022/04/03 02:13:32;;;;;;;7.20;5.95;;;;;;;1.23;100.00;98471.44;1694791;84;21238;-70
2022/04/03 02:15:59;;;;;;;9.45;5.62;;;;;;;1.22;100.00;98471.02;1694538;84;21081;-69
2022/04/03 02:18:26;;;;;;;8.40;6.72;;;;;;;1.21;100.00;98470.63;1694536;84;21085;-69
2022/04/03 02:20:54;;;;;;;7.78;5.70;;;;;;;1.19;100.00;98472.41;1694225;84;21081;-68
2022/04/03 02:23:21;;;;;;;7.05;5.60;;;;;;;1.18;100.00;98470.27;1694358;84;21124;-69
2022/04/03 02:25:50;;;;;;;8.65;5.83;;;;;;;1.16;100.00;98472.50;1694254;84;21241;-69
2022/04/03 02:28:17;;;;;;;8.13;6.10;;;;;;;1.15;100.00;98479.43;1694494;84;21649;-70
2022/04/03 02:30:44;;;;;;;7.45;5.12;;;;;;;1.15;100.00;98475.96;1694501;84;21061;-68
2022/04/03 02:33:10;;;;;;;6.40;5.72;;;;;;;1.15;100.00;98477.26;1694391;84;21093;-69
2022/04/03 02:35:37;;;;;;;8.30;5.28;;;;;;;1.13;100.00;98477.31;1694476;84;21112;-68
2022/04/03 02:38:05;;;;;;;7.28;5.10;;;;;;;1.13;100.00;98482.92;1694341;84;21310;-70
2022/04/03 02:40:31;;;;;;;6.25;4.97;;;;;;;1.13;100.00;98488.98;1694361;84;21073;-69
2022/04/03 02:42:59;;;;;;;6.20;5.37;;;;;;;1.15;100.00;98494.11;1694321;84;21101;-69
2022/04/03 02:45:26;;;;;;;7.15;5.45;;;;;;;1.17;100.00;98487.99;1694387;84;21089;-69
2022/04/03 02:47:55;;;;;;;6.00;5.05;;;;;;;1.17;100.00;98491.88;1694522;84;21633;-69
2022/04/03 02:50:24;;;;;;;8.15;5.50;;;;;;;1.18;100.00;98487.58;1682029;84;21212;-69
2022/04/03 02:52:51;;;;;;;6.22;4.47;;;;;;;1.20;100.00;98493.58;1666489;86;21084;-69
2022/04/03 02:55:19;;;;;;;6.15;4.95;;;;;;;1.17;100.00;98477.62;1666331;86;21112;-70
2022/04/03 02:57:46;;;;;;;6.45;4.95;;;;;;;1.17;100.00;98482.81;1666542;86;21072;-70
2022/04/03 03:00:15;;;;;;;7.08;4.60;;;;;;;1.15;100.00;98479.84;1666390;86;21097;-69
2022/04/03 03:02:45;;;;;;;6.50;4.67;;;;;;;1.15;100.00;98484.61;1666784;85;21058;-70
2022/04/03 03:05:14;;;;;;;7.92;4.80;;;;;;;1.14;100.00;98476.86;1666191;86;21102;-70
2022/04/03 03:07:42;;;;;;;6.47;5.37;;;;;;;1.14;100.00;98479.45;1671167;84;21021;-69
2022/04/03 03:10:19;;;;;;;6.00;5.00;;;;;;;1.13;100.00;98479.03;1654520;86;21134;-70
2022/04/03 03:12:50;;;;;;;5.58;4.58;;;;;;;1.10;100.00;98478.67;1655138;86;21117;-69
2022/04/03 03:15:23;;;;;;;6.33;4.57;;;;;;;1.11;100.00;98483.44;1671852;85;21241;-69
2022/04/03 03:17:46;;;;;;;6.45;5.00;;;;;;;1.09;100.00;98486.51;1680112;85;21100;-70
2022/04/03 03:20:13;;;;;;;7.60;4.97;;;;;;;1.09;100.00;98496.88;1671647;85;21573;-70
2022/04/03 03:22:40;;;;;;;7.12;4.78;;;;;;;1.09;100.00;98499.47;1654696;86;21102;-70
2022/04/03 03:25:08;;;;;;;6.62;4.80;;;;;;;1.10;100.00;98499.41;1654540;86;21097;-71
2022/04/03 03:27:36;;;;;;;4.97;3.95;;;;;;;1.09;100.00;98487.80;1654741;86;21101;-69
2022/04/03 03:30:05;;;;;;;4.47;3.90;;;;;;;1.09;100.00;98495.58;1654598;86;21114;-69
2022/04/03 03:32:32;;;;;;;8.25;4.78;;;;;;;1.10;100.00;98499.86;1654732;86;21089;-70
2022/04/03 03:34:59;;;;;;;8.00;4.70;;;;;;;1.10;100.00;98492.09;1654713;86;21079;-69
2022/04/03 03:37:27;;;;;;;4.60;3.70;;;;;;;1.11;100.00;98498.54;1654720;86;21165;-72
2022/04/03 03:39:53;;;;;;;5.85;4.22;;;;;;;1.15;100.00;98500.59;1654752;86;21210;-70
2022/04/03 03:42:20;;;;;;;5.85;5.20;;;;;;;1.12;100.00;98504.57;1671558;85;21046;-70
2022/04/03 03:44:47;;;;;;;6.67;4.50;;;;;;;1.12;100.00;98505.86;1654695;86;21132;-69
2022/04/03 03:47:14;;;;;;;5.90;4.30;;;;;;;1.13;100.00;98508.85;1654532;86;21148;-69
2022/04/03 03:49:40;;;;;;;5.87;4.47;;;;;;;1.12;100.00;98509.75;1659155;85;21097;-70
2022/04/03 03:52:07;;;;;;;7.03;5.15;;;;;;;1.12;100.00;98505.41;1709477;83;21243;-70
2022/04/03 03:54:34;;;;;;;7.00;5.37;;;;;;;1.13;100.00;98523.11;1699727;84;21057;-70
2022/04/03 03:57:01;;;;;;;5.12;4.45;;;;;;;1.12;100.00;98514.94;1709599;83;21061;-70
2022/04/03 03:59:27;;;;;;;5.08;4.20;;;;;;;1.13;100.00;98521.81;1699691;84;21084;-69
2022/04/03 04:01:55;;;;;;;5.27;4.00;;;;;;;1.15;100.00;98520.04;1709484;83;21619;-69
2022/04/03 04:04:21;;;;;;;6.30;4.85;;;;;;;1.17;100.00;98510.48;1699702;84;21855;-69
2022/04/03 04:06:48;;;;;;;5.87;4.67;;;;;;;1.18;100.00;98512.20;1704677;83;21566;-69
2022/04/03 04:09:16;;;;;;;6.85;5.15;;;;;;;1.19;100.00;98516.48;1694095;84;21101;-70
2022/04/03 04:11:43;;;;;;;6.92;4.60;;;;;;;1.21;100.00;98513.41;1694283;84;21043;-69
2022/04/03 04:14:10;;;;;;;5.92;4.37;;;;;;;1.18;100.00;98508.31;1694446;84;21129;-69
2022/04/03 04:16:36;;;;;;;5.83;4.65;;;;;;;1.18;100.00;98510.45;1694210;84;21169;-69
2022/04/03 04:19:03;;;;;;;5.95;4.15;;;;;;;1.20;100.00;98514.32;1694297;84;21064;-69
2022/04/03 04:21:30;;;;;;;6.28;4.90;;;;;;;1.18;100.00;98508.31;1694343;84;21160;-69
2022/04/03 04:23:57;;;;;;;6.53;5.03;;;;;;;1.17;100.00;98518.27;1694393;84;21046;-70
2022/04/03 04:26:24;;;;;;;5.40;4.67;;;;;;;1.14;100.00;98523.53;1694234;84;21093;-70
2022/04/03 04:28:51;;;;;;;5.33;3.80;;;;;;;1.15;100.00;98520.04;1694210;84;21302;-70
2022/04/03 04:31:19;;;;;;;5.83;4.35;;;;;;;1.18;100.00;98535.55;1693987;84;21633;-69
2022/04/03 04:33:47;;;;;;;6.03;4.67;;;;;;;1.19;100.00;98535.94;1694184;84;21045;-69
2022/04/03 04:36:14;;;;;;;5.83;4.33;;;;;;;1.21;100.00;98539.34;1694049;84;21109;-69
2022/04/03 04:38:42;;;;;;;6.83;4.22;;;;;;;1.22;100.00;98539.73;1694177;84;21080;-70
2022/04/03 04:41:08;;;;;;;5.15;4.40;;;;;;;1.22;100.00;98538.45;1694248;84;21224;-69
2022/04/03 04:43:36;;;;;;;5.85;4.40;;;;;;;1.24;100.00;98541.86;1694171;84;21117;-69
2022/04/03 04:46:03;;;;;;;6.58;4.40;;;;;;;1.23;100.00;98546.65;1694290;84;21081;-70
2022/04/03 04:48:32;;;;;;;6.08;4.70;;;;;;;1.23;100.00;98545.35;1694308;84;21057;-69
2022/04/03 04:50:59;;;;;;;6.28;4.80;;;;;;;1.24;100.00;98548.34;1674684;84;21150;-70
2022/04/03 04:53:25;;;;;;;5.62;4.20;;;;;;;1.24;100.00;98549.22;1666181;86;21219;-70
2022/04/03 04:55:53;;;;;;;5.30;4.20;;;;;;;1.30;100.00;98553.39;1666178;85;21121;-70
2022/04/03 04:58:20;;;;;;;5.92;4.65;;;;;;;1.32;100.00;98554.20;1666099;85;21125;-70
2022/04/03 05:00:48;;;;;;;4.90;4.25;;;;;;;1.36;100.00;98554.54;1675447;84;21160;-69
2022/04/03 05:03:15;;;;;;;6.40;4.47;;;;;;;1.38;100.00;98556.66;1694083;84;21081;-70
2022/04/03 05:05:42;;;;;;;4.20;3.77;;;;;;;1.40;100.00;98557.47;1694331;84;21226;-70
2022/04/03 05:08:09;;;;;;;5.12;4.40;;;;;;;1.40;100.00;98560.06;1693987;83;21601;-68
2022/04/03 05:10:37;;;;;;;4.67;4.10;;;;;;;1.43;100.00;98558.68;1694109;84;21046;-68
2022/04/03 05:13:06;;;;;;;4.47;3.90;;;;;;;1.44;100.00;98551.29;1694029;84;21066;-68
2022/04/03 05:15:33;;;;;;;5.83;4.33;;;;;;;1.46;100.00;98551.27;1663911;84;21053;-68
2022/04/03 05:18:00;;;;;;;5.05;3.98;;;;;;;1.48;100.00;98547.34;1694142;84;21245;-70
2022/04/03 05:20:26;;;;;;;5.97;4.60;;;;;;;1.48;100.00;98542.16;1694126;84;21077;-70
2022/04/03 05:22:53;;;;;;;4.92;4.22;;;;;;;1.51;100.00;98547.25;1694264;84;22215;-69
2022/04/03 05:25:20;;;;;;;5.80;4.35;;;;;;;1.55;100.00;98548.43;1694250;84;21057;-68
2022/04/03 05:27:47;;;;;;;5.10;4.30;;;;;;;1.60;100.00;98547.02;1694137;84;21046;-69
2022/04/03 05:30:14;;;;;;;6.03;4.45;;;;;;;1.63;100.00;98553.41;1694039;84;21254;-69
2022/04/03 05:32:41;;;;;;;5.87;4.47;;;;;;;1.69;100.00;98550.66;1694123;84;21072;-69
2022/04/03 05:35:10;;;;;;;6.12;4.70;;;;;;;1.70;100.00;98551.05;1693845;84;21113;-70
2022/04/03 05:37:37;;;;;;;6.83;4.72;;;;;;;1.69;100.00;98550.66;1694001;84;21614;-70
2022/04/03 05:40:10;;;;;;;5.60;4.58;;;;;;;1.70;100.00;98549.77;1694105;84;21101;-70
2022/04/03 05:42:36;;;;;;;8.43;5.05;;;;;;;1.71;100.00;98548.89;1694148;84;26264;-69
2022/04/03 05:45:05;;;;;;;7.33;4.83;;;;;;;1.67;100.00;98548.09;1694069;84;22297;-69
2022/04/03 05:47:33;;;;;;;6.08;4.12;;;;;;;1.65;100.00;98549.03;1694025;84;21121;-70
2022/04/03 05:49:59;;;;;;;6.05;4.37;;;;;;;1.62;100.00;98543.94;1694257;84;21168;-71
2022/04/03 05:52:26;;;;;;;6.33;4.47;;;;;;;1.66;100.00;98545.11;1694422;84;21113;-70
2022/04/03 05:54:53;;;;;;;5.78;4.50;;;;;;;1.72;100.00;98547.13;1694380;84;21153;-69
2022/04/03 05:57:19;;;;;;;5.65;4.30;;;;;;;1.72;100.00;98547.13;1694193;84;21081;-69
2022/04/03 05:59:46;;;;;;;6.65;4.65;;;;;;;1.79;100.00;98546.92;1694302;84;21061;-68
2022/04/03 06:02:13;;;;;;;4.97;4.10;;;;;;;1.83;100.00;98543.81;1694286;84;21061;-69
2022/04/03 06:04:40;;;;;;;4.90;4.30;;;;;;;1.86;100.00;98542.00;1694239;84;21081;-69
2022/04/03 06:07:07;;;;;;;6.55;4.65;;;;;;;1.93;100.00;98539.21;1700145;83;21146;-68
2022/04/03 06:09:35;;;;;;;6.72;4.50;;;;;;;2.01;100.00;98546.36;1715296;83;21020;-69
2022/04/03 06:12:02;;;;;;;7.83;5.50;;;;;;;2.01;100.00;98546.36;1715542;83;21035;-69
2022/04/03 06:14:30;;;;;;;8.33;5.05;;;;;;;1.99;100.00;98545.55;1719948;83;21084;-70
2022/04/03 06:16:57;;;;;;;5.42;4.50;;;;;;;1.96;100.00;98540.45;1691022;84;21025;-69
2022/04/03 06:19:24;;;;;;;4.72;4.20;;;;;;;1.92;100.00;98551.80;1691044;84;21269;-70
2022/04/03 06:21:50;;;;;;;6.35;4.05;;;;;;;1.92;100.00;98551.80;1719763;83;21602;-69
2022/04/03 06:24:17;;;;;;;5.33;3.83;;;;;;;1.82;100.00;98552.05;1691291;84;21052;-69
2022/04/03 06:26:43;;;;;;;4.78;3.60;;;;;;;1.74;100.00;98551.39;1690811;84;21051;-70
2022/04/03 06:29:11;;;;;;;4.28;3.70;;;;;;;1.58;100.00;98541.01;1719700;83;21541;-69
2022/04/03 06:31:38;;;;;;;5.30;4.10;;;;;;;1.58;100.00;98541.01;1690962;84;21524;-71
2022/04/03 06:34:05;;;;;;;4.37;3.22;;;;;;;1.54;100.00;98548.45;1690624;84;21024;-70
2022/04/03 06:36:32;;;;;;;4.80;3.65;;;;;;;1.40;100.00;98553.58;1719547;83;21092;-69
2022/04/03 06:38:59;;;;;;;4.22;3.33;;;;;;;1.40;100.00;98553.58;1690930;84;21084;-69
2022/04/03 06:41:25;;;;;;;3.87;3.08;;;;;;;1.33;100.00;98555.89;1690907;84;21761;-69
2022/04/03 06:43:52;;;;;;;4.08;3.42;;;;;;;1.28;100.00;98555.16;1719695;83;21792;-70
2022/04/03 06:46:19;;;;;;;5.15;3.40;;;;;;;1.25;100.00;98562.58;1665270;84;21092;-69
2022/04/03 06:48:46;;;;;;;3.50;3.20;;;;;;;1.21;100.00;98558.80;1720374;83;21158;-69
2022/04/03 06:51:13;;;;;;;3.75;3.25;;;;;;;1.16;100.00;98560.66;1679201;84;21096;-72
2022/04/03 06:53:41;;;;;;;3.80;3.30;;;;;;;1.14;100.00;98561.98;1673150;85;21057;-69
2022/04/03 06:56:08;;;;;;;3.98;3.27;;;;;;;1.16;100.00;98555.47;1673239;85;21249;-69
2022/04/03 06:58:36;;;;;;;3.52;2.85;;;;;;;1.21;100.00;98569.17;1673056;85;22101;-68
2022/04/03 07:01:03;;;;;;;3.65;2.90;;;;;;;1.28;100.00;98564.69;1673342;85;21642;-69
2022/04/03 07:03:32;;;;;;;3.87;3.20;;;;;;;1.35;100.00;98567.09;1673316;85;21622;-69
2022/04/03 07:06:01;;;;;;;4.58;2.83;;;;;;;1.78;100.00;98570.34;1663234;86;21037;-70
2022/04/03 07:08:28;;;;;;;4.00;3.42;;;;;;;1.78;100.00;98570.34;1691205;84;21280;-70
2022/04/03 07:10:55;;;;;;;3.40;3.10;;;;;;;1.97;100.00;98574.59;1691188;84;21064;-70
2022/04/03 07:13:22;;;;;;;4.70;3.15;;;;;;;2.22;100.00;98575.61;1663443;86;21089;-70
2022/04/03 07:15:49;;;;;;;3.33;2.90;;;;;;;2.57;100.00;98576.34;1661896;86;21037;-70
2022/04/03 07:18:16;;;;;;;3.65;2.90;;;;;;;2.86;100.00;98577.23;1691105;84;21109;-70
2022/04/03 07:20:50;;;;;;;2.50;2.30;;;;;;;3.11;100.00;98572.97;1663331;86;21264;-69
2022/04/03 07:23:17;;;;;;;3.90;3.08;;;;;;;3.35;100.00;98576.98;1661881;86;21080;-71
2022/04/03 07:25:44;;;;;;;3.35;2.60;;;;;;;3.43;100.00;98582.80;1691324;84;22151;-70
2022/04/03 07:28:10;;;;;;;3.17;2.83;;;;;;;3.48;100.00;98584.80;1663150;86;21067;-69
2022/04/03 07:30:37;;;;;;;4.22;2.60;;;;;;;3.48;100.00;98585.25;1661849;86;21136;-70
2022/04/03 07:33:05;;;;;;;4.17;2.70;;;;;;;3.50;100.00;98584.30;1691010;84;21246;-69
2022/04/03 07:35:31;;;;;;;3.80;3.12;;;;;;;3.51;100.00;98589.88;1663026;86;21039;-70
2022/04/03 07:37:59;;;;;;;2.77;2.40;;;;;;;3.46;100.00;98590.49;1661604;86;21617;-70
2022/04/03 07:40:25;;;;;;;4.08;3.10;;;;;;;3.34;100.00;98597.41;1691057;84;21063;-69
2022/04/03 07:42:53;;;;;;;3.33;2.85;;;;;;;3.23;100.00;98592.99;1663217;86;21025;-70
2022/04/03 07:45:20;;;;;;;3.77;2.95;;;;;;;3.14;100.00;98594.97;1661695;86;21204;-70
2022/04/03 07:47:49;;;;;;;3.27;2.62;;;;;;;3.08;100.00;98597.78;1691039;84;21048;-69
2022/04/03 07:50:21;;;;;;;3.65;2.87;;;;;;;2.99;100.00;98605.87;1674349;84;21104;-69
2022/04/03 07:52:49;;;;;;;4.28;2.92;;;;;;;2.92;100.00;98599.13;1685959;85;21039;-69
2022/04/03 07:55:17;;;;;;;2.80;2.50;;;;;;;2.81;100.00;98603.83;1685906;85;21133;-70
2022/04/03 07:57:43;;;;;;;3.58;2.70;;;;;;;2.71;100.00;98606.70;1685922;85;21266;-70
2022/04/03 08:00:12;;;;;;;4.00;2.72;;;;;;;2.61;100.00;98607.85;1685827;84;21093;-70
2022/04/03 08:02:40;;;;;;;3.08;2.60;;;;;;;2.47;100.00;98611.30;1685854;84;21614;-68
2022/04/03 08:05:08;;;;;;;4.00;2.80;;;;;;;2.36;100.00;98612.05;1686003;85;21128;-70
2022/04/03 08:07:45;;;;;;;3.87;2.95;;;;;;;2.30;100.00;98615.23;1680869;84;21511;-71
2022/04/03 08:10:16;;;;;;;3.75;2.75;;;;;;;2.23;100.00;98608.92;1658595;86;22048;-70
2022/04/03 08:12:45;;;;;;;9.60;2.90;;;;;;;2.20;100.00;98605.97;1658718;86;21101;-70
2022/04/03 08:15:14;;;;;;;4.58;2.62;;;;;;;2.23;100.00;98609.80;1658671;86;21538;-70
2022/04/03 08:17:42;;;;;;;3.35;2.98;;;;;;;2.31;100.00;98610.42;1658725;86;21009;-70
2022/04/03 08:20:11;;;;;;;4.03;2.98;;;;;;;2.47;100.00;98604.80;1658535;86;21041;-70
2022/04/03 08:22:39;;;;;;;4.47;3.42;;;;;;;2.57;100.00;98606.23;1659082;86;21105;-69
2022/04/03 08:25:07;;;;;;;4.37;3.52;;;;;;;2.66;100.00;98612.46;1658415;86;21606;-69
2022/04/03 08:27:47;;;;;;;4.15;3.40;;;;;;;2.78;100.00;98611.70;1658879;86;21069;-70
2022/04/03 08:30:30;;;;;;;3.72;3.08;;;;;;;2.87;100.00;98623.13;1658724;86;21030;-69
2022/04/03 08:32:57;;;;;;;5.33;3.47;;;;;;;2.97;100.00;98620.67;1658651;86;21664;-69
2022/04/03 08:35:26;;;;;;;4.80;3.40;;;;;;;3.01;100.00;98622.25;1658645;86;21901;-71
2022/04/03 08:37:53;;;;;;;4.25;3.17;;;;;;;3.09;100.00;98628.09;1658912;86;21554;-71
2022/04/03 08:40:21;;;;;;;4.22;3.12;;;;;;;3.14;100.00;98626.19;1658505;86;21568;-70
2022/04/03 08:42:50;;;;;;;4.80;3.22;;;;;;;3.19;100.00;98629.10;1658871;86;21135;-71
2022/04/03 08:45:16;;;;;;;4.35;3.10;;;;;;;3.23;100.00;98633.32;1670534;85;21132;-70
2022/04/03 08:47:51;;;;;;;3.95;3.10;;;;;;;3.30;100.00;98627.02;1658655;86;21220;-70
2022/04/03 08:50:19;;;;;;;3.87;2.77;;;;;;;3.33;100.00;98641.23;1658625;86;21576;-69
2022/04/03 08:52:48;;;;;;;4.05;3.50;;;;;;;3.32;100.00;98644.74;1658624;86;21057;-70
2022/04/03 08:55:17;;;;;;;3.83;3.02;;;;;;;3.32;100.00;98636.94;1658539;86;28347;-70
2022/04/03 08:57:43;;;;;;;4.60;3.52;;;;;;;3.35;100.00;98641.57;1658532;86;21098;-70
2022/04/03 09:00:16;;;;;;;4.45;3.33;;;;;;;3.40;100.00;98636.22;1658596;86;21102;-69
2022/04/03 09:02:43;;;;;;;3.83;3.17;;;;;;;3.45;100.00;98635.66;1658323;86;21308;-69
2022/04/03 09:05:09;;;;;;;3.45;3.15;;;;;;;3.50;100.00;98634.20;1658901;86;21113;-69
2022/04/03 09:07:36;;;;;;;4.58;3.40;;;;;;;3.55;100.00;98633.59;1658673;85;21081;-72
2022/04/03 09:10:11;;;;;;;6.10;3.15;;;;;;;3.57;100.00;98632.64;1658732;86;21026;-69
2022/04/03 09:12:49;;;;;;;3.72;3.15;;;;;;;3.61;100.00;98640.34;1658700;86;21255;-71
2022/04/03 09:15:20;;;;;;;3.62;2.95;;;;;;;3.67;100.00;98640.16;1658528;86;21060;-69
2022/04/03 09:17:54;;;;;;;4.80;3.67;;;;;;;3.67;100.00;98636.25;1658798;86;21092;-70
2022/04/03 09:20:36;;;;;;;5.45;3.47;;;;;;;3.67;100.00;98644.05;1658474;86;21466;-70
2022/04/03 09:23:05;;;;;;;3.75;2.95;;;;;;;3.66;100.00;98644.52;1657893;86;21044;-70
2022/04/03 09:25:37;;;;;;;4.20;3.08;;;;;;;3.67;100.00;98650.56;1658489;86;21204;-69
2022/04/03 09:28:11;;;;;;;3.80;2.87;;;;;;;3.65;100.00;98641.95;1658441;86;21573;-71
2022/04/03 09:30:42;;;;;;;4.30;3.50;;;;;;;3.68;100.00;98645.32;1651886;86;21080;-70
2022/04/03 09:33:12;;;;;;;4.60;3.62;;;;;;;3.75;100.00;98645.94;1705057;84;21566;-71
2022/04/03 09:36:03;;;;;;;3.58;3.17;;;;;;;3.86;100.00;98652.95;1683441;84;21046;-69
2022/04/03 09:38:31;;;;;;;3.50;3.00;;;;;;;3.99;100.00;98643.83;1704888;84;21365;-69
2022/04/03 09:40:59;;;;;;;4.10;2.70;;;;;;;3.97;100.00;98653.44;1704765;84;21038;-70
2022/04/03 09:43:38;;;;;;;4.30;3.05;;;;;;;3.97;100.00;98646.09;1705221;84;21105;-70
2022/04/03 09:46:12;;;;;;;3.40;2.87;;;;;;;4.01;100.00;98653.36;1705018;83;22014;-70
2022/04/03 09:48:42;;;;;;;4.83;3.35;;;;;;;3.99;100.00;98645.59;1705224;84;21078;-71
2022/04/03 09:51:19;;;;;;;3.97;3.30;;;;;;;3.98;100.00;98653.02;1727546;82;21282;-70
2022/04/03 09:53:56;;;;;;;3.60;2.75;;;;;;;3.96;100.00;98649.16;1734302;82;20999;-69
2022/04/03 09:56:31;;;;;;;5.12;3.67;;;;;;;4.05;100.00;98650.59;1734379;82;21108;-70
2022/04/03 09:59:05;;;;;;;6.53;5.83;;;;;;;4.04;100.00;98648.03;1734461;82;21089;-71
2022/04/03 10:01:40;;;;;;;6.75;4.15;;;;;;;3.96;100.00;98650.45;1734183;82;21641;-70
2022/04/03 10:04:16;;;;;;;5.33;3.25;;;;;;;3.96;100.00;98652.22;1734259;82;21121;-71
2022/04/03 10:06:43;;;;;;;6.10;4.03;;;;;;;3.96;100.00;98657.42;1734271;82;21037;-71
2022/04/03 10:09:12;;;;;;;4.28;3.10;;;;;;;4.01;100.00;98654.66;1734118;82;20990;-70
2022/04/03 10:11:40;;;;;;;4.40;3.52;;;;;;;4.13;100.00;98658.14;1734192;82;21003;-70
2022/04/03 10:14:06;;;;;;;3.58;2.55;;;;;;;4.24;100.00;98653.41;1734241;82;21034;-70
2022/04/03 10:16:33;;;;;;;4.00;2.90;;;;;;;4.39;100.00;98654.19;1734062;82;21306;-71
2022/04/03 10:19:00;;;;;;;4.15;3.17;;;;;;;4.51;100.00;98657.23;1734021;82;21146;-71
2022/04/03 10:21:45;;;;;;;3.58;2.80;;;;;;;4.61;100.00;98658.16;1734128;82;21264;-70
2022/04/03 10:24:18;;;;;;;3.83;2.65;;;;;;;4.74;100.00;98659.00;1734189;82;20995;-70
2022/04/03 10:27:12;;;;;;;2.62;2.37;;;;;;;4.86;100.00;98649.91;1734328;82;21026;-70
2022/04/03 10:29:40;;;;;;;3.25;2.65;;;;;;;4.77;100.00;98653.23;1734314;82;21304;-69
2022/04/03 10:32:08;;;;;;;3.02;2.65;;;;;;;4.70;100.00;98659.59;1713298;82;22170;-70
2022/04/03 10:34:49;;;;;;;2.77;2.45;;;;;;;4.63;100.00;98667.24;1734074;82;21074;-69
2022/04/03 10:37:31;;;;;;;3.37;2.47;;;;;;;4.57;100.00;98663.54;1734231;82;22143;-69
2022/04/03 10:40:10;;;;;;;4.90;2.50;;;;;;;4.60;100.00;98671.24;1734159;82;21077;-69
2022/04/03 10:43:01;;;;;;;4.40;3.10;;;;;;;4.58;100.00;98675.69;1734291;82;21167;-70
2022/04/03 10:45:35;;;;;;;3.52;2.52;;;;;;;4.40;100.00;98674.13;1734199;82;21053;-70
2022/04/03 10:48:26;;;;;;;3.00;2.35;;;;;;;4.21;100.00;98682.20;1734108;82;21030;-70
2022/04/03 10:51:07;;;;;;;2.47;2.27;;;;;;;4.15;100.00;98681.94;1734381;82;22209;-70
2022/04/03 10:53:43;;;;;;;3.47;2.60;;;;;;;4.13;100.00;98688.11;1729263;82;21086;-70
2022/04/03 10:56:22;;;;;;;2.77;2.40;;;;;;;4.06;100.00;98686.16;1734493;82;21169;-69
2022/04/03 10:58:52;;;;;;;3.10;2.58;;;;;;;4.01;100.00;98688.53;1734263;82;21034;-70
2022/04/03 11:01:34;;;;;;;3.60;2.52;;;;;;;3.93;100.00;98690.06;1734387;82;21082;-70
2022/04/03 11:04:13;;;;;;;2.72;2.17;;;;;;;3.78;100.00;98684.92;1734146;82;21097;-71
2022/04/03 11:06:45;;;;;;;2.70;2.05;;;;;;;3.69;100.00;98691.73;1734179;82;21093;-69
2022/04/03 11:09:22;;;;;;;2.87;2.30;;;;;;;3.74;100.00;98693.73;1734116;81;21147;-69
2022/04/03 11:11:54;;;;;;;2.45;2.25;;;;;;;3.76;100.00;98690.63;1734219;82;21051;-71
2022/04/03 11:14:51;;;;;;;2.52;2.10;;;;;;;3.76;100.00;98692.77;1734547;82;21078;-70
2022/04/03 11:17:48;;;;;;;2.83;2.25;;;;;;;3.78;100.00;98692.73;1734408;82;21554;-70
2022/04/03 11:20:33;;;;;;;2.42;2.20;;;;;;;3.73;100.00;98692.03;1734306;82;21018;-69
2022/04/03 11:23:01;;;;;;;2.90;2.37;;;;;;;3.70;100.00;98693.41;1734225;82;21188;-69
2022/04/03 11:25:28;;;;;;;4.12;2.85;;;;;;;3.73;100.00;98698.55;1713334;82;21567;-69
2022/04/03 11:27:55;;;;;;;2.80;2.30;;;;;;;3.82;100.00;98698.25;1734109;82;22130;-70
2022/04/03 11:30:22;;;;;;;6.05;2.98;;;;;;;3.94;100.00;98704.34;1734319;82;21525;-70
2022/04/03 11:32:48;;;;;;;3.08;2.25;;;;;;;3.99;100.00;98702.44;1734162;82;21578;-69
2022/04/03 11:35:15;;;;;;;2.80;2.30;;;;;;;4.04;100.00;98701.44;1713527;82;21226;-70
2022/04/03 11:37:44;;;;;;;2.47;2.15;;;;;;;3.97;100.00;98699.03;1734253;82;21527;-70
2022/04/03 11:40:12;;;;;;;2.83;2.25;;;;;;;4.02;100.00;98705.84;1734176;82;21050;-70
2022/04/03 11:42:39;;;;;;;2.30;2.10;;;;;;;4.03;100.00;98708.41;1734315;82;21196;-71
2022/04/03 11:45:09;;;;;;;2.62;2.22;;;;;;;4.07;100.00;98711.75;1734032;82;21037;-71